Es ist keine erhöhte Aufmerksamkeit aufgrund des Wetters notwendig.    Es gibt keine Warnungen.
Webcam Vorhersage DWD Regenradar Wetterlage NRW Blitze Wind GFS-Modell
webcam


Kleve - Düffelward SSO more information Kleve - Düffelward SSO


Goch more information Goch


Weitere Templates dieser Seite und andere Webseiten:

Meteotemplate

Awekas - Template

weather34 - Template

Wetter im Erzgebirge


te
World Weather Websites
Bo-Rox Wetter Topsites List
 

METAR-Meldungen aus der Umgebung

   
EDLV - Goch
Aktualisierung: 16-09-2019 23:50
Stark bewölkt  
Stark bewölkt  
   Wind: WNW 5.6 km/h
Wind: WNW 5.6 km/h
Temperatur: 14°C
Taupunkt: 13°C
Luftfeuchte: 94%
Luftdruck: 1021 hPa
Bewölkt: Stark bewölkt
Sichtbarkeit: More than 10 km
Bewölkung: Stark bewölkt 3500 ft
EDLV 162150Z 30003KT 9999 BKN035 14/13 Q1021
EDLV - Emmerich
Aktualisierung: 16-09-2019 23:50
Stark bewölkt  
Stark bewölkt  
   Wind: WNW 5.6 km/h
Wind: WNW 5.6 km/h
Temperatur: 14°C
Taupunkt: 13°C
Luftfeuchte: 94%
Luftdruck: 1021 hPa
Bewölkt: Stark bewölkt
Sichtbarkeit: More than 10 km
Bewölkung: Stark bewölkt 3500 ft
EDLV 162150Z 30003KT 9999 BKN035 14/13 Q1021
EHDL - Nijmegen
Aktualisierung: 17-09-2019 00:25
Stark bewölkt  
Stark bewölkt  
   Wind: Windstille
Wind: Windstille
Temperatur: 9°C
Taupunkt: 8°C
Luftfeuchte: 94%
Luftdruck: 1021 hPa
Bewölkt: Stark bewölkt
Sichtbarkeit: More than 10 km
Bewölkung: Stark bewölkt 36000 ft
EHDL 162225Z AUTO 00000KT 9999 BKN360 09/08 Q1021 BLU
EHDL - Arnhem
Aktualisierung: 17-09-2019 00:25
Stark bewölkt  
Stark bewölkt  
   Wind: Windstille
Wind: Windstille
Temperatur: 9°C
Taupunkt: 8°C
Luftfeuchte: 94%
Luftdruck: 1021 hPa
Bewölkt: Stark bewölkt
Sichtbarkeit: More than 10 km
Bewölkung: Stark bewölkt 36000 ft
EHDL 162225Z AUTO 00000KT 9999 BKN360 09/08 Q1021 BLU
EDLV - Kalkar
Aktualisierung: 16-09-2019 23:50
Stark bewölkt  
Stark bewölkt  
   Wind: WNW 5.6 km/h
Wind: WNW 5.6 km/h
Temperatur: 14°C
Taupunkt: 13°C
Luftfeuchte: 94%
Luftdruck: 1021 hPa
Bewölkt: Stark bewölkt
Sichtbarkeit: More than 10 km
Bewölkung: Stark bewölkt 3500 ft
EDLV 162150Z 30003KT 9999 BKN035 14/13 Q1021
 

Script entwickelt von  Saratoga-weather.org Angepasst für das Template von  Weerstation Leuven

Sie finden Wetter-Infos dieser Station auch auf:

UK Metoffice

European Weather Network

WeatherCloud

Weather Underground

Germany Weather Network

AWEKAS

Neuwetter

Wettersektor

Von uns verwendete Ausrüstung:

Wetterstation
Davis Vantage Pro2

Wetterprogramm
Meteobridge

WetterComputer
Computer

Davis Vantage Pro2

Meteobridge

Computer